createdAt,value
2023-05-05T00:02:24.588Z,14.45
2023-05-05T00:04:51.064Z,16.60
2023-05-05T00:07:17.473Z,14.95
2023-05-05T00:09:44.500Z,16.50
2023-05-05T00:12:10.952Z,14.48
2023-05-05T00:14:37.399Z,16.70
2023-05-05T00:17:04.164Z,17.75
2023-05-05T00:19:31.125Z,14.77
2023-05-05T00:21:57.583Z,19.70
2023-05-05T00:24:24.189Z,14.43
2023-05-05T00:26:51.120Z,15.65
2023-05-05T00:29:17.578Z,15.73
2023-05-05T00:31:44.131Z,18.45
2023-05-05T00:34:11.037Z,16.40
2023-05-05T00:36:37.477Z,15.77
2023-05-05T00:39:03.935Z,14.13
2023-05-05T00:41:30.407Z,14.13
2023-05-05T00:43:56.844Z,16.13
2023-05-05T00:46:26.009Z,13.48
2023-05-05T00:48:53.320Z,14.48
2023-05-05T00:51:20.932Z,16.23
2023-05-05T00:53:50.667Z,14.02
2023-05-05T00:56:19.458Z,16.02
2023-05-05T00:58:46.028Z,19.48
2023-05-05T01:01:12.628Z,13.68
2023-05-05T01:03:40.488Z,15.43
2023-05-05T01:06:30.344Z,19.08
2023-05-05T01:09:20.463Z,13.65
2023-05-05T01:11:58.055Z,14.52
2023-05-05T01:14:48.329Z,16.33
2023-05-05T01:17:21.043Z,15.20
2023-05-05T01:20:00.074Z,16.17
2023-05-05T01:22:39.435Z,17.02
2023-05-05T01:25:30.028Z,13.73
2023-05-05T01:28:15.449Z,16.92
2023-05-05T01:31:03.834Z,15.90
2023-05-05T01:33:36.744Z,12.52
2023-05-05T01:36:10.847Z,12.73
2023-05-05T01:38:43.910Z,15.98
2023-05-05T01:41:18.213Z,17.02
2023-05-05T01:43:50.220Z,14.98
2023-05-05T01:46:19.214Z,15.65
2023-05-05T01:48:48.900Z,15.10
2023-05-05T01:51:18.404Z,14.32
2023-05-05T01:53:47.178Z,16.20
2023-05-05T01:56:15.924Z,18.13
2023-05-05T01:58:45.070Z,14.95
2023-05-05T02:01:13.399Z,16.08
2023-05-05T02:03:42.008Z,17.13
2023-05-05T02:06:10.263Z,14.40
2023-05-05T02:08:39.274Z,16.92
2023-05-05T02:11:08.321Z,16.45
2023-05-05T02:13:36.801Z,16.40
2023-05-05T02:16:05.706Z,16.88
2023-05-05T02:18:35.793Z,21.40
2023-05-05T02:21:03.752Z,17.60
2023-05-05T02:23:30.736Z,16.23
2023-05-05T02:26:06.481Z,19.13
2023-05-05T02:28:38.768Z,16.58
2023-05-05T02:31:07.671Z,22.27
2023-05-05T02:33:36.599Z,16.30
2023-05-05T02:36:12.654Z,18.23
2023-05-05T02:38:43.506Z,17.20
2023-05-05T02:41:16.535Z,20.08
2023-05-05T02:43:44.256Z,19.85
2023-05-05T02:46:11.167Z,21.73
2023-05-05T02:48:37.670Z,17.35
2023-05-05T02:51:04.282Z,16.83
2023-05-05T02:53:30.969Z,15.00
2023-05-05T02:56:06.955Z,15.68
2023-05-05T02:58:48.775Z,19.65
2023-05-05T03:01:39.988Z,19.10
2023-05-05T03:04:08.594Z,18.83
2023-05-05T03:06:48.719Z,16.27
2023-05-05T03:09:37.682Z,17.20
2023-05-05T03:12:07.161Z,17.10
2023-05-05T03:14:41.843Z,17.90
2023-05-05T03:17:11.862Z,20.33
2023-05-05T03:19:41.696Z,16.42
2023-05-05T03:22:08.867Z,19.83
2023-05-05T03:24:35.424Z,17.73
2023-05-05T03:27:02.728Z,21.45
2023-05-05T03:29:30.096Z,19.48
2023-05-05T03:31:56.724Z,19.05
2023-05-05T03:34:23.193Z,21.58
2023-05-05T03:36:49.676Z,20.73
2023-05-05T03:39:16.371Z,19.23
2023-05-05T03:41:42.815Z,17.88
2023-05-05T03:44:09.265Z,22.27
2023-05-05T03:46:35.983Z,21.27
2023-05-05T03:49:02.487Z,21.40
2023-05-05T03:51:28.912Z,26.98
2023-05-05T03:53:55.428Z,25.92
2023-05-05T03:56:21.969Z,23.13
2023-05-05T03:58:48.480Z,24.63
2023-05-05T04:01:14.934Z,23.65
2023-05-05T04:03:41.484Z,21.10
2023-05-05T04:06:08.111Z,26.55
2023-05-05T04:08:34.653Z,24.77
2023-05-05T04:11:03.625Z,24.80
2023-05-05T04:13:30.146Z,22.40
2023-05-05T04:15:56.696Z,22.92
2023-05-05T04:18:23.224Z,28.65
2023-05-05T04:20:49.676Z,22.40
2023-05-05T04:23:16.165Z,25.63
2023-05-05T04:25:42.847Z,24.23
2023-05-05T04:28:09.339Z,31.02
2023-05-05T04:30:35.791Z,24.13
2023-05-05T04:33:02.282Z,25.85
2023-05-05T04:35:28.755Z,22.75
2023-05-05T04:37:55.557Z,23.20
2023-05-05T04:40:22.147Z,26.73
2023-05-05T04:42:48.642Z,25.17
2023-05-05T04:45:15.193Z,27.88
2023-05-05T04:47:42.057Z,26.50
2023-05-05T04:50:09.522Z,25.60
2023-05-05T04:52:36.194Z,26.80
2023-05-05T04:55:02.723Z,25.88
2023-05-05T04:57:30.350Z,26.90
2023-05-05T04:59:56.918Z,25.75
2023-05-05T05:02:23.617Z,27.55
2023-05-05T05:04:50.138Z,29.75
2023-05-05T05:07:16.639Z,30.70
2023-05-05T05:09:43.130Z,25.80
2023-05-05T05:12:09.791Z,33.42
2023-05-05T05:14:37.801Z,24.40
2023-05-05T05:17:07.490Z,27.10
2023-05-05T05:19:34.320Z,31.20
2023-05-05T05:22:00.815Z,32.08
2023-05-05T05:24:27.290Z,33.53
2023-05-05T05:26:53.866Z,33.88
2023-05-05T05:29:20.466Z,27.52
2023-05-05T05:31:46.995Z,29.58
2023-05-05T05:34:16.126Z,33.47
2023-05-05T05:36:42.626Z,33.17
2023-05-05T05:39:09.151Z,33.38
2023-05-05T05:41:35.657Z,31.33
2023-05-05T05:44:02.081Z,30.05
2023-05-05T05:46:28.564Z,20.25
2023-05-05T05:48:55.145Z,17.73
2023-05-05T05:51:21.566Z,10.90
2023-05-05T05:53:48.104Z,19.23
2023-05-05T05:56:14.537Z,23.02
2023-05-05T05:58:41.041Z,30.40
2023-05-05T06:01:07.551Z,32.78
2023-05-05T06:03:34.496Z,29.73
2023-05-05T06:06:01.136Z,32.40
2023-05-05T06:08:27.683Z,25.40
2023-05-05T06:10:54.193Z,15.18
2023-05-05T06:13:22.235Z,30.15
2023-05-05T06:15:48.763Z,28.80
2023-05-05T06:18:15.328Z,28.58
2023-05-05T06:20:43.356Z,18.20
2023-05-05T06:23:09.797Z,30.52
2023-05-05T06:25:36.362Z,32.80
2023-05-05T06:28:02.798Z,29.30
2023-05-05T06:30:29.725Z,30.27
2023-05-05T06:32:56.286Z,26.17
2023-05-05T06:35:23.271Z,29.20
2023-05-05T06:37:49.752Z,28.23
2023-05-05T06:40:16.328Z,24.90
2023-05-05T06:42:42.857Z,25.55
2023-05-05T06:45:09.654Z,23.17
2023-05-05T06:47:36.448Z,17.23
2023-05-05T06:50:03.771Z,17.30
2023-05-05T06:52:30.311Z,17.60
2023-05-05T06:54:56.881Z,13.57
2023-05-05T06:57:23.488Z,18.40
2023-05-05T06:59:50.045Z,17.95
2023-05-05T07:02:16.473Z,17.10
2023-05-05T07:04:43.977Z,14.52
2023-05-05T07:07:10.459Z,13.57
2023-05-05T07:09:36.994Z,16.55
2023-05-05T07:12:03.699Z,14.23
2023-05-05T07:14:30.661Z,15.82
2023-05-05T07:16:57.259Z,14.75
2023-05-05T07:19:23.793Z,9.60
2023-05-05T07:21:50.432Z,12.23
2023-05-05T07:24:16.873Z,14.80
2023-05-05T07:26:43.504Z,12.32
2023-05-05T07:29:09.982Z,17.67
2023-05-05T07:31:36.547Z,15.93
2023-05-05T07:34:03.079Z,17.27
2023-05-05T07:36:29.581Z,15.18
2023-05-05T07:38:57.153Z,18.08
2023-05-05T07:41:23.622Z,15.30
2023-05-05T07:43:50.066Z,16.15
2023-05-05T07:46:16.533Z,14.73
2023-05-05T07:48:43.179Z,15.05
2023-05-05T07:51:10.820Z,17.20
2023-05-05T07:53:37.510Z,16.20
2023-05-05T07:56:04.152Z,15.88
2023-05-05T07:58:30.722Z,16.88
2023-05-05T08:00:57.286Z,18.42
2023-05-05T08:03:26.695Z,21.85
2023-05-05T08:05:55.001Z,15.50
2023-05-05T08:08:24.540Z,15.82
2023-05-05T08:10:52.923Z,20.85
2023-05-05T08:13:19.463Z,17.48
2023-05-05T08:15:45.986Z,16.02
2023-05-05T08:18:12.468Z,17.83
2023-05-05T08:20:38.970Z,20.35
2023-05-05T08:23:05.474Z,19.95
2023-05-05T08:25:31.933Z,16.55
2023-05-05T08:27:58.396Z,19.42
2023-05-05T08:30:24.881Z,19.05
2023-05-05T08:32:51.350Z,16.10
2023-05-05T08:35:18.012Z,16.45
2023-05-05T08:37:44.551Z,16.48
2023-05-05T08:40:14.691Z,18.80
2023-05-05T08:42:41.983Z,17.00
2023-05-05T08:45:10.456Z,20.55
2023-05-05T08:47:38.393Z,17.33
2023-05-05T08:50:05.940Z,17.92
2023-05-05T08:52:44.557Z,18.95
2023-05-05T08:55:28.052Z,19.40
2023-05-05T08:57:58.309Z,17.60
2023-05-05T09:00:26.942Z,20.05
2023-05-05T09:02:57.212Z,18.30
2023-05-05T09:05:25.164Z,18.52
2023-05-05T09:07:51.781Z,6.00
2023-05-05T09:10:18.882Z,18.20
2023-05-05T09:12:45.550Z,14.55
2023-05-05T09:15:14.077Z,17.95
2023-05-05T09:17:41.806Z,12.80
2023-05-05T09:20:11.163Z,16.05
2023-05-05T09:22:39.101Z,11.25
2023-05-05T09:25:07.399Z,15.95
2023-05-05T09:27:39.013Z,17.15
2023-05-05T09:30:06.554Z,15.80
2023-05-05T09:32:50.000Z,13.10
2023-05-05T09:35:17.471Z,15.07
2023-05-05T09:37:44.650Z,10.65
2023-05-05T09:40:13.625Z,13.38
2023-05-05T09:42:42.038Z,13.30
2023-05-05T09:45:17.737Z,10.05
2023-05-05T09:47:46.045Z,17.67
2023-05-05T09:50:16.003Z,14.48
2023-05-05T09:52:43.258Z,17.17
2023-05-05T09:55:18.822Z,14.77
2023-05-05T09:57:47.253Z,14.20
2023-05-05T10:00:14.688Z,7.45
2023-05-05T10:02:41.953Z,11.63
2023-05-05T10:05:13.067Z,13.15
2023-05-05T10:07:41.922Z,4.50
2023-05-05T10:10:10.095Z,12.77
2023-05-05T10:12:37.726Z,12.75
2023-05-05T10:15:06.230Z,12.60
2023-05-05T10:17:36.702Z,12.93
2023-05-05T10:20:04.055Z,13.60
2023-05-05T10:22:35.030Z,13.65
2023-05-05T10:25:09.754Z,10.55
2023-05-05T10:27:44.782Z,9.70
2023-05-05T10:30:22.475Z,11.57
2023-05-05T10:33:07.998Z,11.27
2023-05-05T10:35:43.511Z,10.57
2023-05-05T10:38:12.554Z,16.50
2023-05-05T10:40:48.924Z,13.20
2023-05-05T10:43:15.872Z,14.07
2023-05-05T10:45:43.383Z,12.73
2023-05-05T10:48:21.109Z,15.88
2023-05-05T10:51:06.136Z,12.02
2023-05-05T10:53:41.307Z,15.32
2023-05-05T10:58:59.017Z,12.63
2023-05-05T11:01:35.649Z,12.13
2023-05-05T11:04:22.055Z,9.23
2023-05-05T11:07:14.448Z,11.68
2023-05-05T11:10:02.029Z,12.38
2023-05-05T11:12:30.028Z,11.65
2023-05-05T11:15:31.727Z,10.65
2023-05-05T11:17:59.632Z,9.18
2023-05-05T11:20:35.355Z,11.55
2023-05-05T11:23:05.172Z,12.52
2023-05-05T11:25:52.543Z,14.05
2023-05-05T11:28:29.865Z,9.05
2023-05-05T11:30:56.911Z,11.18
2023-05-05T11:33:38.230Z,12.80
2023-05-05T11:36:09.450Z,9.02
2023-05-05T11:38:38.939Z,7.30
2023-05-05T11:41:23.782Z,11.35
2023-05-05T11:43:50.362Z,6.80
2023-05-05T11:46:17.299Z,6.68
2023-05-05T11:48:52.918Z,10.32
2023-05-05T11:51:19.372Z,8.80
2023-05-05T11:53:47.734Z,8.73
2023-05-05T11:56:22.449Z,8.32
2023-05-05T11:59:04.691Z,15.32
2023-05-05T12:01:31.266Z,12.02
2023-05-05T12:03:58.048Z,8.65
2023-05-05T12:06:24.701Z,9.60
2023-05-05T12:08:51.283Z,9.18
2023-05-05T12:11:18.512Z,10.45
2023-05-05T12:13:45.114Z,9.48
2023-05-05T12:16:15.692Z,9.73
2023-05-05T12:18:42.921Z,10.07
2023-05-05T12:21:19.263Z,8.55
2023-05-05T12:23:46.236Z,3.33
2023-05-05T12:26:32.026Z,5.07
2023-05-05T12:28:59.389Z,6.60
2023-05-05T12:31:35.979Z,8.75
2023-05-05T12:34:03.531Z,11.13
2023-05-05T12:36:31.012Z,15.00
2023-05-05T12:38:57.983Z,5.28
2023-05-05T12:41:24.972Z,8.20
2023-05-05T12:43:58.855Z,9.32
2023-05-05T12:46:26.479Z,5.30
2023-05-05T12:49:01.536Z,16.40
2023-05-05T12:51:28.174Z,13.57
2023-05-05T12:54:09.886Z,16.13
2023-05-05T12:56:41.397Z,18.55
2023-05-05T12:59:09.758Z,15.65
2023-05-05T13:01:47.721Z,17.85
2023-05-05T13:04:15.078Z,24.48
2023-05-05T13:06:44.399Z,18.83
2023-05-05T13:09:35.714Z,20.13
2023-05-05T13:12:03.766Z,19.63
2023-05-05T13:14:31.865Z,17.85
2023-05-05T13:16:58.374Z,17.10
2023-05-05T13:19:25.123Z,14.82
2023-05-05T13:21:52.696Z,14.48
2023-05-05T13:24:31.173Z,14.68
2023-05-05T13:29:32.698Z,8.80
2023-05-05T13:31:59.520Z,12.02
2023-05-05T13:34:26.348Z,12.20
2023-05-05T13:36:52.955Z,8.70
2023-05-05T13:39:19.634Z,10.60
2023-05-05T13:41:46.209Z,8.98
2023-05-05T13:44:13.799Z,5.57
2023-05-05T13:46:41.721Z,11.18
2023-05-05T13:49:08.239Z,11.27
2023-05-05T13:51:34.922Z,12.30
2023-05-05T13:54:01.588Z,9.30
2023-05-05T13:56:28.242Z,13.25
2023-05-05T13:58:54.886Z,7.32
2023-05-05T14:01:21.422Z,10.30
2023-05-05T14:03:48.009Z,9.50
2023-05-05T14:06:14.591Z,7.35
2023-05-05T14:08:41.606Z,8.45
2023-05-05T14:11:08.094Z,5.15
2023-05-05T14:13:34.587Z,5.05
2023-05-05T14:16:01.158Z,9.48
2023-05-05T14:18:28.255Z,4.75
2023-05-05T14:20:54.805Z,7.30
2023-05-05T14:23:21.384Z,8.23
2023-05-05T14:25:47.896Z,8.23
2023-05-05T14:28:14.405Z,10.70
2023-05-05T14:30:40.883Z,8.68
2023-05-05T14:33:07.438Z,12.20
2023-05-05T14:35:34.304Z,9.60
2023-05-05T14:38:00.772Z,11.63
2023-05-05T14:40:29.421Z,14.13
2023-05-05T14:42:55.965Z,13.18
2023-05-05T14:45:22.466Z,12.77
2023-05-05T14:47:49.131Z,11.02
2023-05-05T14:50:15.730Z,13.18
2023-05-05T14:52:44.318Z,7.70
2023-05-05T14:55:11.272Z,6.30
2023-05-05T14:57:38.684Z,10.43
2023-05-05T15:00:06.966Z,10.60
2023-05-05T15:02:33.739Z,13.93
2023-05-05T15:05:00.356Z,10.80
2023-05-05T15:07:28.587Z,9.82
2023-05-05T15:09:58.552Z,11.38
2023-05-05T15:12:25.987Z,8.63
2023-05-05T15:14:52.626Z,11.70
2023-05-05T15:17:19.264Z,14.38
2023-05-05T15:19:45.779Z,11.10
2023-05-05T15:22:12.275Z,9.40
2023-05-05T15:24:38.792Z,7.70
2023-05-05T15:27:05.343Z,8.52
2023-05-05T15:29:32.005Z,10.57
2023-05-05T15:31:58.623Z,9.25
2023-05-05T15:34:25.105Z,9.55
2023-05-05T15:36:51.713Z,11.02
2023-05-05T15:39:18.706Z,8.10
2023-05-05T15:41:45.516Z,7.40
2023-05-05T15:44:12.385Z,8.60
2023-05-05T15:46:39.205Z,6.03
2023-05-05T15:49:05.829Z,6.05
2023-05-05T15:51:32.352Z,4.97
2023-05-05T15:53:59.425Z,7.35
2023-05-05T15:56:27.505Z,5.47
2023-05-05T15:58:54.354Z,5.30
2023-05-05T16:01:21.049Z,5.00
2023-05-05T16:03:47.611Z,7.15
2023-05-05T16:06:14.122Z,5.35
2023-05-05T16:08:40.784Z,6.55
2023-05-05T16:11:07.275Z,5.05
2023-05-05T16:13:33.811Z,6.38
2023-05-05T16:16:00.313Z,4.95
2023-05-05T16:18:26.767Z,7.15
2023-05-05T16:20:53.307Z,4.68
2023-05-05T16:23:19.769Z,6.35
2023-05-05T16:25:46.262Z,6.43
2023-05-05T16:28:12.780Z,5.18
2023-05-05T16:30:39.867Z,5.15
2023-05-05T16:33:06.810Z,4.93
2023-05-05T16:35:33.447Z,6.05
2023-05-05T16:37:59.962Z,6.53
2023-05-05T16:40:26.407Z,10.10
2023-05-05T16:42:52.968Z,4.47
2023-05-05T16:45:19.531Z,3.83
2023-05-05T16:47:45.994Z,6.82
2023-05-05T16:50:12.631Z,3.60
2023-05-05T16:52:39.131Z,6.53
2023-05-05T16:55:05.952Z,5.65
2023-05-05T16:57:32.493Z,8.70
2023-05-05T16:59:59.047Z,8.18
2023-05-05T17:02:28.316Z,7.07
2023-05-05T17:04:54.834Z,9.48
2023-05-05T17:07:21.499Z,10.25
2023-05-05T17:09:48.147Z,11.50
2023-05-05T17:12:14.590Z,15.98
2023-05-05T17:14:41.785Z,12.48
2023-05-05T17:17:08.321Z,13.00
2023-05-05T17:19:34.866Z,11.60
2023-05-05T17:22:01.457Z,10.88
2023-05-05T17:24:27.909Z,15.23
2023-05-05T17:26:55.310Z,12.07
2023-05-05T17:29:23.185Z,11.70
2023-05-05T17:31:50.544Z,9.60
2023-05-05T17:34:17.158Z,10.63
2023-05-05T17:36:43.715Z,8.88
2023-05-05T17:39:11.387Z,10.10
2023-05-05T17:41:37.975Z,15.88
2023-05-05T17:44:04.555Z,11.90
2023-05-05T17:46:31.016Z,13.25
2023-05-05T17:48:57.545Z,9.18
2023-05-05T17:51:24.007Z,10.90
2023-05-05T17:53:50.459Z,12.55
2023-05-05T17:56:17.142Z,14.52
2023-05-05T17:58:43.653Z,15.80
2023-05-05T18:01:19.263Z,13.20
2023-05-05T18:03:45.942Z,14.70
2023-05-05T18:06:12.427Z,13.82
2023-05-05T18:08:38.874Z,11.88
2023-05-05T18:11:05.413Z,13.88
2023-05-05T18:13:34.932Z,11.23
2023-05-05T18:16:02.818Z,12.15
2023-05-05T18:18:29.632Z,11.52
2023-05-05T18:20:56.107Z,14.27
2023-05-05T18:23:22.716Z,16.65
2023-05-05T18:25:49.223Z,13.93
2023-05-05T18:28:15.729Z,12.07
2023-05-05T18:30:42.189Z,11.05
2023-05-05T18:33:08.708Z,10.15
2023-05-05T18:35:35.583Z,13.18
2023-05-05T18:38:03.315Z,8.93
2023-05-05T18:40:29.852Z,9.55
2023-05-05T18:42:56.915Z,10.63
2023-05-05T18:45:23.627Z,14.25
2023-05-05T18:47:50.134Z,9.13
2023-05-05T18:50:16.797Z,11.93
2023-05-05T18:52:43.220Z,12.63
2023-05-05T18:55:10.127Z,10.60
2023-05-05T18:57:36.838Z,11.13
2023-05-05T19:00:03.539Z,11.23
2023-05-05T19:02:30.112Z,15.93
2023-05-05T19:04:56.712Z,12.05
2023-05-05T19:07:34.377Z,18.85
2023-05-05T19:10:01.822Z,13.55
2023-05-05T19:12:28.262Z,15.23
2023-05-05T19:14:54.751Z,19.70
2023-05-05T19:17:21.270Z,20.38
2023-05-05T19:19:47.732Z,21.13
2023-05-05T19:22:17.502Z,20.95
2023-05-05T19:24:50.064Z,18.85
2023-05-05T19:27:17.093Z,21.17
2023-05-05T19:29:43.800Z,14.93
2023-05-05T19:32:10.526Z,16.27
2023-05-05T19:34:37.154Z,17.45
2023-05-05T19:37:03.704Z,15.57
2023-05-05T19:39:30.213Z,16.42
2023-05-05T19:41:56.682Z,16.95
2023-05-05T19:44:23.754Z,14.40
2023-05-05T19:46:50.466Z,17.38
2023-05-05T19:49:16.951Z,16.17
2023-05-05T19:51:43.833Z,19.55
2023-05-05T19:54:10.408Z,17.45
2023-05-05T19:56:37.012Z,17.40
2023-05-05T19:59:05.269Z,15.85
2023-05-05T20:01:33.783Z,19.08
2023-05-05T20:04:00.791Z,20.50
2023-05-05T20:06:27.445Z,18.92
2023-05-05T20:08:55.120Z,20.95
2023-05-05T20:11:25.859Z,20.05
2023-05-05T20:13:53.078Z,18.08
2023-05-05T20:16:19.994Z,18.27
2023-05-05T20:18:46.677Z,19.65
2023-05-05T20:21:13.350Z,18.92
2023-05-05T20:23:39.958Z,17.40
2023-05-05T20:26:07.644Z,18.30
2023-05-05T20:28:34.262Z,16.92
2023-05-05T20:31:00.910Z,18.15
2023-05-05T20:33:30.349Z,20.88
2023-05-05T20:35:56.808Z,17.90
2023-05-05T20:38:23.436Z,16.08
2023-05-05T20:40:50.429Z,18.60
2023-05-05T20:43:16.888Z,20.25
2023-05-05T20:45:43.396Z,17.83
2023-05-05T20:48:11.337Z,18.05
2023-05-05T20:50:38.698Z,16.88
2023-05-05T20:53:07.772Z,17.52
2023-05-05T20:55:34.330Z,20.08
2023-05-05T20:58:00.942Z,19.45
2023-05-05T21:00:27.619Z,18.75
2023-05-05T21:02:54.319Z,27.95
2023-05-05T21:05:21.015Z,19.33
2023-05-05T21:07:47.542Z,20.08
2023-05-05T21:10:14.050Z,18.90
2023-05-05T21:12:41.393Z,19.75
2023-05-05T21:15:08.880Z,23.25
2023-05-05T21:17:36.267Z,23.48
2023-05-05T21:20:02.923Z,20.02
2023-05-05T21:22:31.900Z,23.30
2023-05-05T21:25:10.078Z,20.92
2023-05-05T21:27:36.529Z,18.90
2023-05-05T21:30:03.080Z,24.27
2023-05-05T21:32:29.601Z,18.02
2023-05-05T21:34:56.226Z,20.05
2023-05-05T21:37:22.709Z,18.27
2023-05-05T21:39:49.609Z,17.88
2023-05-05T21:42:16.152Z,19.63
2023-05-05T21:44:42.611Z,20.60
2023-05-05T21:47:09.688Z,20.95
2023-05-05T21:49:36.185Z,19.27
2023-05-05T21:52:02.648Z,24.25
2023-05-05T21:54:29.996Z,20.73
2023-05-05T21:56:56.481Z,20.38
2023-05-05T21:59:22.906Z,19.30
2023-05-05T22:01:49.651Z,20.35
2023-05-05T22:04:16.153Z,20.23
2023-05-05T22:06:42.654Z,21.38
2023-05-05T22:09:09.122Z,23.13
2023-05-05T22:11:35.720Z,22.27
2023-05-05T22:14:02.290Z,22.13
2023-05-05T22:16:28.784Z,19.55
2023-05-05T22:18:55.301Z,20.23
2023-05-05T22:21:22.085Z,22.23
2023-05-05T22:23:48.525Z,27.05
2023-05-05T22:26:14.991Z,23.60
2023-05-05T22:28:41.621Z,20.30
2023-05-05T22:31:08.058Z,23.60
2023-05-05T22:33:36.049Z,23.80
2023-05-05T22:36:02.637Z,21.55
2023-05-05T22:38:29.243Z,22.20
2023-05-05T22:40:55.719Z,20.58
2023-05-05T22:43:22.139Z,23.52
2023-05-05T22:45:48.684Z,28.55
2023-05-05T22:48:15.127Z,23.25
2023-05-05T22:50:41.618Z,25.65
2023-05-05T22:53:08.084Z,23.60
2023-05-05T22:55:34.565Z,21.70
2023-05-05T22:58:01.033Z,21.45
2023-05-05T23:00:28.270Z,21.80
2023-05-05T23:02:55.079Z,22.63
2023-05-05T23:05:22.008Z,25.02
2023-05-05T23:07:48.585Z,24.23
2023-05-05T23:10:15.060Z,21.70
2023-05-05T23:12:41.550Z,24.33
2023-05-05T23:15:08.745Z,36.10
2023-05-05T23:17:35.337Z,44.72
2023-05-05T23:20:02.585Z,36.05
2023-05-05T23:22:29.041Z,31.40
2023-05-05T23:24:55.561Z,35.45
2023-05-05T23:27:22.968Z,28.17
2023-05-05T23:29:49.435Z,26.33
2023-05-05T23:32:16.070Z,24.15
2023-05-05T23:34:42.524Z,23.67
2023-05-05T23:37:08.988Z,27.65
2023-05-05T23:39:35.443Z,27.08
2023-05-05T23:42:01.949Z,26.05
2023-05-05T23:44:28.421Z,21.55
2023-05-05T23:46:54.855Z,24.10
2023-05-05T23:49:21.421Z,28.38
2023-05-05T23:51:47.906Z,26.52
2023-05-05T23:54:14.374Z,25.50
2023-05-05T23:56:41.089Z,26.85
2023-05-05T23:59:07.518Z,25.88
